createdAt,value
2022-10-14T00:00:22.070Z,98263.00
2022-10-14T00:02:56.925Z,98264.00
2022-10-14T00:05:31.836Z,98265.00
2022-10-14T00:08:06.858Z,98257.00
2022-10-14T00:10:41.970Z,98257.00
2022-10-14T00:13:17.008Z,98259.00
2022-10-14T00:15:51.889Z,98249.00
2022-10-14T00:18:27.388Z,98250.00
2022-10-14T00:21:03.341Z,98258.00
2022-10-14T00:23:38.405Z,98254.00
2022-10-14T00:26:23.206Z,98258.00
2022-10-14T00:29:00.667Z,98254.00
2022-10-14T00:31:39.700Z,98264.00
2022-10-14T00:34:16.013Z,98258.00
2022-10-14T00:36:51.047Z,98260.00
2022-10-14T00:39:27.047Z,98259.00
2022-10-14T00:42:01.995Z,98260.00
2022-10-14T00:44:36.742Z,98268.00
2022-10-14T00:47:12.266Z,98253.00
2022-10-14T00:49:47.102Z,98258.00
2022-10-14T00:52:24.613Z,98256.00
2022-10-14T00:55:16.401Z,98255.00
2022-10-14T00:57:51.280Z,98265.00
2022-10-14T01:00:26.459Z,98252.00
2022-10-14T01:03:07.711Z,98253.00
2022-10-14T01:06:26.280Z,98256.00
2022-10-14T01:09:22.326Z,98257.00
2022-10-14T01:12:29.538Z,98258.00
2022-10-14T01:15:35.936Z,98251.00
2022-10-14T01:18:43.693Z,98248.00
2022-10-14T01:21:40.315Z,98251.00
2022-10-14T01:24:48.935Z,98244.00
2022-10-14T01:27:52.605Z,98243.00
2022-10-14T01:30:35.618Z,98245.00
2022-10-14T01:33:22.843Z,98254.00
2022-10-14T01:36:08.516Z,98244.00
2022-10-14T01:38:57.123Z,98242.00
2022-10-14T01:41:39.035Z,98249.00
2022-10-14T01:44:19.056Z,98252.00
2022-10-14T01:46:55.950Z,98245.00
2022-10-14T01:49:36.969Z,98248.00
2022-10-14T01:52:22.790Z,98241.00
2022-10-14T01:55:03.955Z,98243.00
2022-10-14T01:57:41.334Z,98236.00
2022-10-14T02:00:16.682Z,98231.00
2022-10-14T02:02:51.556Z,98246.00
2022-10-14T02:05:37.583Z,98244.00
2022-10-14T02:08:36.066Z,98250.00
2022-10-14T02:11:18.218Z,98246.00
2022-10-14T02:14:21.628Z,98246.00
2022-10-14T02:17:17.877Z,98248.00
2022-10-14T02:20:03.334Z,98249.00
2022-10-14T02:22:44.879Z,98249.00
2022-10-14T02:25:26.660Z,98245.00
2022-10-14T02:28:03.579Z,98234.00
2022-10-14T02:30:47.341Z,98242.00
2022-10-14T02:33:36.591Z,98244.00
2022-10-14T02:36:15.893Z,98239.00
2022-10-14T02:38:53.013Z,98237.00
2022-10-14T02:41:35.499Z,98235.00
2022-10-14T02:44:10.633Z,98230.00
2022-10-14T02:46:46.192Z,98228.00
2022-10-14T02:49:21.439Z,98219.00
2022-10-14T02:51:56.475Z,98220.00
2022-10-14T02:54:31.389Z,98213.00
2022-10-14T02:57:06.340Z,98216.00
2022-10-14T02:59:41.315Z,98202.00
2022-10-14T03:02:16.403Z,98201.00
2022-10-14T03:04:51.477Z,98191.00
2022-10-14T03:07:26.631Z,98184.00
2022-10-14T03:10:05.004Z,98186.00
2022-10-14T03:12:43.693Z,98178.00
2022-10-14T03:15:28.294Z,98172.00
2022-10-14T03:18:03.485Z,98171.00
2022-10-14T03:20:48.570Z,98166.00
2022-10-14T03:23:28.920Z,98179.00
2022-10-14T03:26:03.935Z,98174.00
2022-10-14T03:28:44.170Z,98167.00
2022-10-14T03:31:27.752Z,98157.00
2022-10-14T03:34:28.898Z,98168.00
2022-10-14T03:37:12.584Z,98162.00
2022-10-14T03:39:54.543Z,98158.00
2022-10-14T03:42:29.815Z,98151.00
2022-10-14T03:45:05.379Z,98150.00
2022-10-14T03:47:40.673Z,98150.00
2022-10-14T03:50:15.762Z,98143.00
2022-10-14T03:52:55.875Z,98145.00
2022-10-14T03:55:38.194Z,98145.00
2022-10-14T03:58:14.089Z,98140.00
2022-10-14T04:00:57.249Z,98135.00
2022-10-14T04:04:02.940Z,98135.00
2022-10-14T04:06:38.260Z,98124.00
2022-10-14T04:09:15.268Z,98123.00
2022-10-14T04:11:50.739Z,98124.00
2022-10-14T04:14:45.905Z,98127.00
2022-10-14T04:17:20.856Z,98120.00
2022-10-14T04:19:55.930Z,98116.00
2022-10-14T04:22:30.890Z,98113.00
2022-10-14T04:25:08.087Z,98105.00
2022-10-14T04:27:43.074Z,98104.00
2022-10-14T04:30:18.329Z,98100.00
2022-10-14T04:32:59.623Z,98105.00
2022-10-14T04:35:34.993Z,98112.00
2022-10-14T04:38:09.922Z,98108.00
2022-10-14T04:40:52.654Z,98109.00
2022-10-14T04:43:28.394Z,98112.00
2022-10-14T04:46:06.065Z,98106.00
2022-10-14T04:48:41.890Z,98102.00
2022-10-14T04:51:17.053Z,98097.00
2022-10-14T04:54:10.829Z,98098.00
2022-10-14T04:56:54.991Z,98088.00
2022-10-14T04:59:30.022Z,98097.00
2022-10-14T05:02:20.342Z,98092.00
2022-10-14T05:05:05.985Z,98093.00
2022-10-14T05:07:45.115Z,98087.00
2022-10-14T05:10:32.065Z,98079.00
2022-10-14T05:13:08.761Z,98070.00
2022-10-14T05:15:51.540Z,98070.00
2022-10-14T05:18:27.077Z,98067.00
2022-10-14T05:21:09.297Z,98062.00
2022-10-14T05:24:08.561Z,98058.00
2022-10-14T05:26:46.075Z,98060.00
2022-10-14T05:29:22.120Z,98058.00
2022-10-14T05:31:59.389Z,98053.00
2022-10-14T05:34:50.185Z,98052.00
2022-10-14T05:37:33.548Z,98048.00
2022-10-14T05:40:10.627Z,98037.00
2022-10-14T05:42:46.034Z,98043.00
2022-10-14T05:45:21.591Z,98034.00
2022-10-14T05:48:00.471Z,98043.00
2022-10-14T05:50:35.340Z,98044.00
2022-10-14T05:53:15.402Z,98039.00
2022-10-14T05:56:06.099Z,98048.00
2022-10-14T05:58:41.482Z,98051.00
2022-10-14T06:01:17.066Z,98048.00
2022-10-14T06:03:52.666Z,98044.00
2022-10-14T06:06:29.134Z,98042.00
2022-10-14T06:09:08.968Z,98042.00
2022-10-14T06:11:46.557Z,98045.00
2022-10-14T06:14:21.721Z,98035.00
2022-10-14T06:16:56.815Z,98039.00
2022-10-14T06:19:33.081Z,98041.00
2022-10-14T06:22:08.344Z,98045.00
2022-10-14T06:24:43.358Z,98052.00
2022-10-14T06:27:18.514Z,98048.00
2022-10-14T06:29:53.427Z,98049.00
2022-10-14T06:32:28.407Z,98052.00
2022-10-14T06:35:03.497Z,98052.00
2022-10-14T06:37:38.779Z,98042.00
2022-10-14T06:40:13.770Z,98046.00
2022-10-14T06:42:48.784Z,98046.00
2022-10-14T06:45:25.773Z,98048.00
2022-10-14T06:48:00.720Z,98047.00
2022-10-14T06:50:36.576Z,98051.00
2022-10-14T06:53:11.604Z,98043.00
2022-10-14T06:55:46.551Z,98044.00
2022-10-14T06:58:21.557Z,98036.00
2022-10-14T07:01:05.613Z,98039.00
2022-10-14T07:03:40.611Z,98046.00
2022-10-14T07:06:15.693Z,98053.00
2022-10-14T07:08:50.685Z,98036.00
2022-10-14T07:11:25.765Z,98035.00
2022-10-14T07:14:00.748Z,98043.00
2022-10-14T07:16:35.687Z,98033.00
2022-10-14T07:19:10.748Z,98038.00
2022-10-14T07:21:46.753Z,98045.00
2022-10-14T07:24:21.766Z,98043.00
2022-10-14T07:26:56.725Z,98046.00
2022-10-14T07:29:32.784Z,98050.00
2022-10-14T07:32:07.754Z,98048.00
2022-10-14T07:34:42.675Z,98050.00
2022-10-14T07:37:17.630Z,98051.00
2022-10-14T07:39:52.562Z,98052.00
2022-10-14T07:42:27.470Z,98047.00
2022-10-14T07:45:02.722Z,98050.00
2022-10-14T07:47:37.699Z,98055.00
2022-10-14T07:50:13.325Z,98058.00
2022-10-14T07:52:48.236Z,98060.00
2022-10-14T07:55:23.177Z,98057.00
2022-10-14T07:57:58.154Z,98057.00
2022-10-14T08:00:33.151Z,98063.00
2022-10-14T08:03:08.063Z,98054.00
2022-10-14T08:05:43.378Z,98056.00
2022-10-14T08:08:18.914Z,98050.00
2022-10-14T08:11:04.326Z,98046.00
2022-10-14T08:13:43.468Z,98043.00
2022-10-14T08:16:27.521Z,98040.00
2022-10-14T08:19:14.088Z,98044.00
2022-10-14T08:21:49.817Z,98045.00
2022-10-14T08:24:24.825Z,98040.00
2022-10-14T08:27:01.005Z,98039.00
2022-10-14T08:29:35.973Z,98044.00
2022-10-14T08:32:10.920Z,98038.00
2022-10-14T08:34:45.765Z,98039.00
2022-10-14T08:37:20.679Z,98035.00
2022-10-14T08:39:55.617Z,98036.00
2022-10-14T08:42:41.022Z,98032.00
2022-10-14T08:45:23.967Z,98030.00
2022-10-14T08:48:01.180Z,98022.00
2022-10-14T08:50:49.533Z,98024.00
2022-10-14T08:53:29.242Z,98029.00
2022-10-14T08:56:05.223Z,98018.00
2022-10-14T08:58:50.282Z,98022.00
2022-10-14T09:01:33.301Z,98022.00
2022-10-14T09:04:13.983Z,98015.00
2022-10-14T09:06:51.544Z,98026.00
2022-10-14T09:09:41.522Z,98024.00
2022-10-14T09:12:24.541Z,98009.00
2022-10-14T09:15:07.082Z,98012.00
2022-10-14T09:18:16.692Z,98014.00
2022-10-14T09:20:52.779Z,98016.00
2022-10-14T09:23:28.329Z,98012.00
2022-10-14T09:26:12.453Z,98014.00
2022-10-14T09:28:49.765Z,98013.00
2022-10-14T09:31:24.853Z,98011.00
2022-10-14T09:33:59.920Z,98009.00
2022-10-14T09:36:34.857Z,98006.00
2022-10-14T09:39:12.287Z,98006.00
2022-10-14T09:41:52.665Z,98002.00
2022-10-14T09:44:27.587Z,98002.00
2022-10-14T09:47:08.154Z,98004.00
2022-10-14T09:49:48.185Z,98005.00
2022-10-14T09:52:25.448Z,97995.00
2022-10-14T09:55:01.632Z,98003.00
2022-10-14T09:57:36.620Z,97995.00
2022-10-14T10:00:27.222Z,97991.00
2022-10-14T10:03:02.254Z,97991.00
2022-10-14T10:05:37.289Z,97985.00
2022-10-14T10:08:18.961Z,97986.00
2022-10-14T10:11:13.984Z,97978.00
2022-10-14T10:13:49.051Z,97983.00
2022-10-14T10:16:31.275Z,97978.00
2022-10-14T10:19:31.388Z,97977.00
2022-10-14T10:25:02.458Z,97971.00
2022-10-14T10:27:45.818Z,97964.00
2022-10-14T10:30:32.565Z,97957.00
2022-10-14T10:33:16.597Z,97961.00
2022-10-14T10:36:07.875Z,97944.00
2022-10-14T10:39:01.561Z,97940.00
2022-10-14T10:42:06.013Z,97939.00
2022-10-14T10:44:59.436Z,97934.00
2022-10-14T10:47:58.278Z,97924.00
2022-10-14T10:50:46.463Z,97934.00
2022-10-14T10:53:55.423Z,97923.00
2022-10-14T10:56:52.241Z,97914.00
2022-10-14T10:59:44.530Z,97910.00
2022-10-14T11:02:49.524Z,97905.00
2022-10-14T11:05:47.688Z,97921.00
2022-10-14T11:09:12.152Z,97909.00
2022-10-14T11:12:20.688Z,97913.00
2022-10-14T11:15:10.363Z,97903.00
2022-10-14T11:17:54.221Z,97895.00
2022-10-14T11:20:36.854Z,97900.00
2022-10-14T11:23:49.581Z,97897.00
2022-10-14T11:26:48.182Z,97906.00
2022-10-14T11:29:28.619Z,97910.00
2022-10-14T11:32:21.747Z,97908.00
2022-10-14T11:35:37.142Z,97912.00
2022-10-14T11:38:52.596Z,97889.00
2022-10-14T11:42:13.575Z,97898.00
2022-10-14T11:45:24.022Z,97895.00
2022-10-14T11:48:31.608Z,97887.00
2022-10-14T11:51:21.097Z,97883.00
2022-10-14T11:54:03.456Z,97875.00
2022-10-14T11:57:06.319Z,97880.00
2022-10-14T12:00:23.309Z,97868.00
2022-10-14T12:03:26.465Z,97855.00
2022-10-14T12:06:25.441Z,97859.00
2022-10-14T12:09:04.718Z,97849.00
2022-10-14T12:12:04.138Z,97842.00
2022-10-14T12:14:44.142Z,97840.00
2022-10-14T12:17:34.307Z,97839.00
2022-10-14T12:20:44.697Z,97843.00
2022-10-14T12:24:07.996Z,97840.00
2022-10-14T12:26:58.224Z,97834.00
2022-10-14T12:29:40.454Z,97836.00
2022-10-14T12:32:26.627Z,97830.00
2022-10-14T12:35:02.717Z,97828.00
2022-10-14T12:37:50.191Z,97823.00
2022-10-14T12:40:28.550Z,97813.00
2022-10-14T12:43:18.328Z,97811.00
2022-10-14T12:46:14.374Z,97812.00
2022-10-14T12:48:51.869Z,97816.00
2022-10-14T12:51:27.402Z,97812.00
2022-10-14T12:54:14.046Z,97807.00
2022-10-14T12:57:03.072Z,97805.00
2022-10-14T12:59:39.578Z,97807.00
2022-10-14T13:02:45.721Z,97806.00
2022-10-14T13:05:43.628Z,97802.00
2022-10-14T13:08:24.237Z,97800.00
2022-10-14T13:11:15.014Z,97799.00
2022-10-14T13:13:58.833Z,97789.00
2022-10-14T13:16:33.710Z,97792.00
2022-10-14T13:19:32.417Z,97809.00
2022-10-14T13:22:38.898Z,97814.00
2022-10-14T13:25:19.268Z,97803.00
2022-10-14T13:28:21.169Z,97803.00
2022-10-14T13:31:08.612Z,97805.00
2022-10-14T13:33:55.618Z,97794.00
2022-10-14T13:36:57.611Z,97789.00
2022-10-14T13:39:34.713Z,97789.00
2022-10-14T13:42:26.519Z,97805.00
2022-10-14T13:45:14.423Z,97801.00
2022-10-14T13:47:49.983Z,97799.00
2022-10-14T13:50:33.434Z,97799.00
2022-10-14T13:53:23.775Z,97792.00
2022-10-14T13:55:58.713Z,97801.00
2022-10-14T14:01:14.239Z,97793.00
2022-10-14T14:03:58.406Z,97798.00
2022-10-14T14:06:45.293Z,97787.00
2022-10-14T14:09:31.492Z,97784.00
2022-10-14T14:12:07.302Z,97786.00
2022-10-14T14:14:44.188Z,97782.00
2022-10-14T14:17:22.421Z,97781.00
2022-10-14T14:19:58.490Z,97770.00
2022-10-14T14:22:41.935Z,97776.00
2022-10-14T14:25:36.997Z,97778.00
2022-10-14T14:28:19.023Z,97766.00
2022-10-14T14:30:55.651Z,97777.00
2022-10-14T14:33:34.176Z,97779.00
2022-10-14T14:36:27.481Z,97778.00
2022-10-14T14:39:24.500Z,97776.00
2022-10-14T14:42:00.826Z,97778.00
2022-10-14T14:44:36.004Z,97791.00
2022-10-14T14:47:11.469Z,97765.00
2022-10-14T14:49:46.773Z,97768.00
2022-10-14T14:52:26.904Z,97765.00
2022-10-14T14:55:02.580Z,97765.00
2022-10-14T14:57:37.515Z,97768.00
2022-10-14T15:00:21.680Z,97766.00
2022-10-14T15:03:03.552Z,97766.00
2022-10-14T15:05:38.480Z,97762.00
2022-10-14T15:08:23.331Z,97772.00
2022-10-14T15:11:00.497Z,97767.00
2022-10-14T15:13:55.099Z,97761.00
2022-10-14T15:16:42.134Z,97769.00
2022-10-14T15:19:20.954Z,97773.00
2022-10-14T15:22:17.361Z,97774.00
2022-10-14T15:25:22.484Z,97775.00
2022-10-14T15:28:01.926Z,97777.00
2022-10-14T15:30:39.889Z,97760.00
2022-10-14T15:33:19.720Z,97752.00
2022-10-14T15:36:04.240Z,97766.00
2022-10-14T15:38:39.443Z,97759.00
2022-10-14T15:41:14.342Z,97756.00
2022-10-14T15:43:49.312Z,97750.00
2022-10-14T15:46:42.909Z,97751.00
2022-10-14T15:49:37.412Z,97752.00
2022-10-14T15:52:18.465Z,97740.00
2022-10-14T15:54:58.487Z,97746.00
2022-10-14T15:57:33.415Z,97743.00
2022-10-14T16:00:09.233Z,97735.00
2022-10-14T16:02:49.205Z,97739.00
2022-10-14T16:05:26.835Z,97737.00
2022-10-14T16:08:01.784Z,97731.00
2022-10-14T16:10:37.475Z,97735.00
2022-10-14T16:13:13.275Z,97726.00
2022-10-14T16:15:59.521Z,97736.00
2022-10-14T16:18:34.424Z,97728.00
2022-10-14T16:21:17.191Z,97733.00
2022-10-14T16:23:52.747Z,97730.00
2022-10-14T16:26:27.852Z,97727.00
2022-10-14T16:29:03.754Z,97737.00
2022-10-14T16:31:38.708Z,97732.00
2022-10-14T16:34:14.014Z,97748.00
2022-10-14T16:36:50.519Z,97748.00
2022-10-14T16:39:25.417Z,97742.00
2022-10-14T16:42:00.649Z,97736.00
2022-10-14T16:44:35.613Z,97742.00
2022-10-14T16:47:17.049Z,97729.00
2022-10-14T16:49:52.091Z,97741.00
2022-10-14T16:52:27.059Z,97733.00
2022-10-14T16:55:02.096Z,97742.00
2022-10-14T16:57:37.043Z,97739.00
2022-10-14T17:00:13.630Z,97745.00
2022-10-14T17:02:48.607Z,97752.00
2022-10-14T17:05:23.545Z,97752.00
2022-10-14T17:07:58.588Z,97743.00
2022-10-14T17:10:33.866Z,97751.00
2022-10-14T17:13:08.791Z,97743.00
2022-10-14T17:15:46.402Z,97739.00
2022-10-14T17:18:25.605Z,97732.00
2022-10-14T17:21:09.126Z,97738.00
2022-10-14T17:23:44.829Z,97731.00
2022-10-14T17:26:20.685Z,97729.00
2022-10-14T17:28:56.948Z,97733.00
2022-10-14T17:31:32.102Z,97727.00
2022-10-14T17:34:07.087Z,97721.00
2022-10-14T17:36:42.402Z,97725.00
2022-10-14T17:39:24.368Z,97734.00
2022-10-14T17:42:04.469Z,97732.00
2022-10-14T17:44:43.398Z,97728.00
2022-10-14T17:47:19.497Z,97732.00
2022-10-14T17:49:54.536Z,97725.00
2022-10-14T17:52:29.547Z,97732.00
2022-10-14T17:55:05.149Z,97733.00
2022-10-14T17:57:40.190Z,97730.00
2022-10-14T18:00:15.347Z,97733.00
2022-10-14T18:02:50.309Z,97731.00
2022-10-14T18:05:25.791Z,97743.00
2022-10-14T18:08:01.116Z,97731.00
2022-10-14T18:10:37.434Z,97727.00
2022-10-14T18:13:12.382Z,97730.00
2022-10-14T18:15:47.362Z,97723.00
2022-10-14T18:18:23.316Z,97728.00
2022-10-14T18:21:01.298Z,97713.00
2022-10-14T18:23:39.338Z,97713.00
2022-10-14T18:26:18.296Z,97713.00
2022-10-14T18:28:56.789Z,97706.00
2022-10-14T18:31:33.081Z,97698.00
2022-10-14T18:34:11.186Z,97708.00
2022-10-14T18:36:47.845Z,97690.00
2022-10-14T18:39:23.381Z,97696.00
2022-10-14T18:41:58.822Z,97692.00
2022-10-14T18:44:33.830Z,97685.00
2022-10-14T18:47:08.804Z,97685.00
2022-10-14T18:49:43.715Z,97683.00
2022-10-14T18:52:20.829Z,97678.00
2022-10-14T18:54:56.206Z,97674.00
2022-10-14T18:57:32.033Z,97682.00
2022-10-14T19:00:13.478Z,97681.00
2022-10-14T19:02:49.297Z,97677.00
2022-10-14T19:05:24.280Z,97677.00
2022-10-14T19:08:00.263Z,97662.00
2022-10-14T19:10:35.313Z,97669.00
2022-10-14T19:13:12.163Z,97659.00
2022-10-14T19:15:56.722Z,97662.00
2022-10-14T19:18:32.259Z,97652.00
2022-10-14T19:21:13.314Z,97646.00
2022-10-14T19:23:50.031Z,97644.00
2022-10-14T19:26:28.692Z,97643.00
2022-10-14T19:29:09.017Z,97636.00
2022-10-14T19:31:46.483Z,97639.00
2022-10-14T19:34:22.913Z,97638.00
2022-10-14T19:37:01.066Z,97631.00
2022-10-14T19:39:35.921Z,97624.00
2022-10-14T19:42:10.873Z,97620.00
2022-10-14T19:44:46.105Z,97619.00
2022-10-14T19:47:21.304Z,97612.00
2022-10-14T19:49:56.423Z,97609.00
2022-10-14T19:52:31.345Z,97605.00
2022-10-14T19:55:07.293Z,97607.00
2022-10-14T19:57:42.844Z,97595.00
2022-10-14T20:00:17.931Z,97599.00
2022-10-14T20:02:52.939Z,97600.00
2022-10-14T20:05:29.092Z,97587.00
2022-10-14T20:08:05.944Z,97594.00
2022-10-14T20:10:40.943Z,97592.00
2022-10-14T20:13:15.855Z,97582.00
2022-10-14T20:16:00.029Z,97583.00
2022-10-14T20:18:36.061Z,97585.00
2022-10-14T20:21:14.290Z,97579.00
2022-10-14T20:23:49.218Z,97576.00
2022-10-14T20:29:04.362Z,97569.00
2022-10-14T20:31:39.358Z,97573.00
2022-10-14T20:34:14.320Z,97566.00
2022-10-14T20:36:49.279Z,97571.00
2022-10-14T20:39:24.344Z,97561.00
2022-10-14T20:41:59.389Z,97568.00
2022-10-14T20:44:35.318Z,97553.00
2022-10-14T20:47:10.338Z,97551.00
2022-10-14T20:49:45.216Z,97549.00
2022-10-14T20:52:20.121Z,97551.00
2022-10-14T20:54:55.037Z,97540.00
2022-10-14T20:57:29.938Z,97548.00
2022-10-14T21:00:06.777Z,97541.00
2022-10-14T21:05:21.495Z,97539.00
2022-10-14T21:07:56.427Z,97536.00
2022-10-14T21:10:31.413Z,97530.00
2022-10-14T21:13:06.268Z,97529.00
2022-10-14T21:15:41.164Z,97531.00
2022-10-14T21:18:16.150Z,97520.00
2022-10-14T21:23:27.839Z,97522.00
2022-10-14T21:26:02.784Z,97521.00
2022-10-14T21:28:37.761Z,97511.00
2022-10-14T21:31:17.578Z,97511.00
2022-10-14T21:33:59.880Z,97505.00
2022-10-14T21:36:39.010Z,97499.00
2022-10-14T21:39:16.872Z,97497.00
2022-10-14T21:41:52.091Z,97490.00
2022-10-14T21:44:27.513Z,97484.00
2022-10-14T21:47:02.481Z,97471.00
2022-10-14T21:49:37.447Z,97478.00
2022-10-14T21:52:12.327Z,97480.00
2022-10-14T21:54:47.306Z,97471.00
2022-10-14T21:57:22.395Z,97468.00
2022-10-14T21:59:57.519Z,97467.00
2022-10-14T22:02:32.493Z,97456.00
2022-10-14T22:05:07.965Z,97470.00
2022-10-14T22:07:42.865Z,97461.00
2022-10-14T22:10:36.125Z,97462.00
2022-10-14T22:13:11.628Z,97452.00
2022-10-14T22:15:46.639Z,97450.00
2022-10-14T22:18:22.815Z,97451.00
2022-10-14T22:21:05.406Z,97448.00
2022-10-14T22:23:40.463Z,97436.00
2022-10-14T22:26:19.282Z,97432.00
2022-10-14T22:29:20.705Z,97433.00
2022-10-14T22:31:55.649Z,97434.00
2022-10-14T22:34:30.606Z,97429.00
2022-10-14T22:37:05.638Z,97425.00
2022-10-14T22:39:40.653Z,97421.00
2022-10-14T22:42:15.610Z,97430.00
2022-10-14T22:44:50.553Z,97428.00
2022-10-14T22:47:25.893Z,97421.00
2022-10-14T22:50:01.103Z,97413.00
2022-10-14T22:52:36.079Z,97407.00
2022-10-14T22:55:11.060Z,97403.00
2022-10-14T22:57:46.014Z,97407.00
2022-10-14T23:00:21.109Z,97407.00
2022-10-14T23:02:56.177Z,97398.00
2022-10-14T23:05:31.140Z,97397.00
2022-10-14T23:08:10.206Z,97398.00
2022-10-14T23:10:45.168Z,97396.00
2022-10-14T23:13:20.138Z,97389.00
2022-10-14T23:16:03.240Z,97391.00
2022-10-14T23:18:39.430Z,97391.00
2022-10-14T23:21:30.505Z,97386.00
2022-10-14T23:24:10.187Z,97385.00
2022-10-14T23:26:45.167Z,97389.00
2022-10-14T23:29:21.142Z,97379.00
2022-10-14T23:31:56.786Z,97377.00
2022-10-14T23:34:31.837Z,97381.00
2022-10-14T23:37:06.839Z,97365.00
2022-10-14T23:39:41.837Z,97368.00
2022-10-14T23:42:16.789Z,97369.00
2022-10-14T23:44:51.774Z,97371.00
2022-10-14T23:47:26.747Z,97369.00
2022-10-14T23:50:01.784Z,97367.00
2022-10-14T23:52:36.726Z,97369.00
2022-10-14T23:55:12.929Z,97366.00
2022-10-14T23:57:47.883Z,97366.00
